createdAt,value
2023-02-24T00:02:30.113Z,8.40
2023-02-24T00:05:05.664Z,8.40
2023-02-24T00:07:44.469Z,8.40
2023-02-24T00:10:21.723Z,8.50
2023-02-24T00:12:58.141Z,8.50
2023-02-24T00:15:35.995Z,8.40
2023-02-24T00:18:16.675Z,8.40
2023-02-24T00:20:58.096Z,8.40
2023-02-24T00:23:32.897Z,8.40
2023-02-24T00:26:11.324Z,8.40
2023-02-24T00:28:51.603Z,8.40
2023-02-24T00:31:27.488Z,8.40
2023-02-24T00:34:08.917Z,8.40
2023-02-24T00:36:46.195Z,8.40
2023-02-24T00:39:29.695Z,8.40
2023-02-24T00:42:07.637Z,8.40
2023-02-24T00:44:48.398Z,8.40
2023-02-24T00:47:21.189Z,8.40
2023-02-24T00:50:07.512Z,8.50
2023-02-24T00:52:45.916Z,8.40
2023-02-24T00:55:23.482Z,8.40
2023-02-24T00:58:10.895Z,8.40
2023-02-24T01:00:52.744Z,8.40
2023-02-24T01:03:28.573Z,8.40
2023-02-24T01:06:12.851Z,8.40
2023-02-24T01:08:50.101Z,8.40
2023-02-24T01:11:40.732Z,8.40
2023-02-24T01:14:18.848Z,8.40
2023-02-24T01:16:57.072Z,8.40
2023-02-24T01:19:35.890Z,8.40
2023-02-24T01:22:16.693Z,8.40
2023-02-24T01:24:52.260Z,8.40
2023-02-24T01:27:27.493Z,8.40
2023-02-24T01:30:02.391Z,8.40
2023-02-24T01:32:38.074Z,8.40
2023-02-24T01:35:09.595Z,8.40
2023-02-24T01:37:51.932Z,8.40
2023-02-24T01:40:28.394Z,8.40
2023-02-24T01:43:03.777Z,8.30
2023-02-24T01:45:40.888Z,8.30
2023-02-24T01:48:19.870Z,8.30
2023-02-24T01:50:59.880Z,8.30
2023-02-24T01:53:39.684Z,8.30
2023-02-24T01:56:19.013Z,8.30
2023-02-24T01:58:57.521Z,8.30
2023-02-24T02:01:41.542Z,8.30
2023-02-24T02:04:21.203Z,8.30
2023-02-24T02:06:59.833Z,8.30
2023-02-24T02:09:42.665Z,8.20
2023-02-24T02:12:25.714Z,8.20
2023-02-24T02:15:03.113Z,8.20
2023-02-24T02:17:48.450Z,8.20
2023-02-24T02:20:43.601Z,8.30
2023-02-24T02:23:27.939Z,8.20
2023-02-24T02:26:36.524Z,8.20
2023-02-24T02:29:31.640Z,8.20
2023-02-24T02:32:22.259Z,8.10
2023-02-24T02:35:03.904Z,8.10
2023-02-24T02:37:39.858Z,8.10
2023-02-24T02:40:25.318Z,8.10
2023-02-24T02:43:02.212Z,8.10
2023-02-24T02:45:47.904Z,8.10
2023-02-24T02:48:27.034Z,8.10
2023-02-24T02:51:11.608Z,8.10
2023-02-24T02:53:53.927Z,8.10
2023-02-24T02:56:33.380Z,8.10
2023-02-24T02:59:13.137Z,8.10
2023-02-24T03:02:03.654Z,8.10
2023-02-24T03:04:39.955Z,8.10
2023-02-24T03:07:31.632Z,8.10
2023-02-24T03:10:17.867Z,8.10
2023-02-24T03:12:55.859Z,8.10
2023-02-24T03:15:45.195Z,8.10
2023-02-24T03:18:21.758Z,8.10
2023-02-24T03:21:05.605Z,8.10
2023-02-24T03:23:47.340Z,8.10
2023-02-24T03:26:24.338Z,8.10
2023-02-24T03:29:06.002Z,8.10
2023-02-24T03:31:44.820Z,8.10
2023-02-24T03:34:22.012Z,8.10
2023-02-24T03:36:57.868Z,8.10
2023-02-24T03:39:38.160Z,8.10
2023-02-24T03:42:23.733Z,8.10
2023-02-24T03:45:00.105Z,8.10
2023-02-24T03:47:39.266Z,8.10
2023-02-24T03:50:16.572Z,8.10
2023-02-24T03:52:55.447Z,8.10
2023-02-24T03:55:39.111Z,8.00
2023-02-24T03:58:20.296Z,8.10
2023-02-24T04:01:01.234Z,8.00
2023-02-24T04:03:40.228Z,8.00
2023-02-24T04:06:33.451Z,8.00
2023-02-24T04:09:17.008Z,8.00
2023-02-24T04:12:10.578Z,8.00
2023-02-24T04:14:58.097Z,8.00
2023-02-24T04:17:34.735Z,8.00
2023-02-24T04:20:23.420Z,8.00
2023-02-24T04:23:12.544Z,8.00
2023-02-24T04:25:55.889Z,8.00
2023-02-24T04:28:35.510Z,8.00
2023-02-24T04:31:24.281Z,8.00
2023-02-24T04:33:58.925Z,8.00
2023-02-24T04:36:41.969Z,8.00
2023-02-24T04:39:24.558Z,8.00
2023-02-24T04:42:07.511Z,8.00
2023-02-24T04:44:41.659Z,8.00
2023-02-24T04:47:25.529Z,8.00
2023-02-24T04:50:05.735Z,8.00
2023-02-24T04:52:48.036Z,8.00
2023-02-24T04:55:23.122Z,8.00
2023-02-24T04:58:00.961Z,7.90
2023-02-24T05:00:41.306Z,7.90
2023-02-24T05:03:22.134Z,7.90
2023-02-24T05:06:00.537Z,7.90
2023-02-24T05:08:38.922Z,7.90
2023-02-24T05:11:20.233Z,7.90
2023-02-24T05:13:58.365Z,7.90
2023-02-24T05:16:34.748Z,7.90
2023-02-24T05:19:29.776Z,7.90
2023-02-24T05:22:17.808Z,7.90
2023-02-24T05:24:58.798Z,7.90
2023-02-24T05:27:39.618Z,7.90
2023-02-24T05:30:18.678Z,7.90
2023-02-24T05:32:56.648Z,7.90
2023-02-24T05:35:40.024Z,7.90
2023-02-24T05:38:14.276Z,7.90
2023-02-24T05:40:57.987Z,7.90
2023-02-24T05:43:35.957Z,7.90
2023-02-24T05:46:20.867Z,7.90
2023-02-24T05:49:02.977Z,7.90
2023-02-24T05:51:55.163Z,7.90
2023-02-24T05:54:33.530Z,7.90
2023-02-24T05:57:14.020Z,7.90
2023-02-24T05:59:52.670Z,7.90
2023-02-24T06:02:39.211Z,7.90
2023-02-24T06:05:25.729Z,7.90
2023-02-24T06:08:18.146Z,7.80
2023-02-24T06:10:55.973Z,7.80
2023-02-24T06:13:32.776Z,7.70
2023-02-24T06:16:15.468Z,7.70
2023-02-24T06:18:53.700Z,7.60
2023-02-24T06:21:30.462Z,7.60
2023-02-24T06:24:22.872Z,7.60
2023-02-24T06:27:12.146Z,7.50
2023-02-24T06:29:51.104Z,7.50
2023-02-24T06:32:30.273Z,7.50
2023-02-24T06:38:15.161Z,7.60
2023-02-24T06:40:57.919Z,7.50
2023-02-24T06:43:37.252Z,7.60
2023-02-24T06:46:16.517Z,7.60
2023-02-24T06:48:52.122Z,7.60
2023-02-24T06:51:30.649Z,7.50
2023-02-24T06:54:08.001Z,7.50
2023-02-24T06:56:42.817Z,7.50
2023-02-24T06:59:28.860Z,7.50
2023-02-24T07:02:18.880Z,7.50
2023-02-24T07:04:59.284Z,7.40
2023-02-24T07:07:38.568Z,7.40
2023-02-24T07:10:16.845Z,7.30
2023-02-24T07:12:55.419Z,7.30
2023-02-24T07:15:59.092Z,7.50
2023-02-24T07:21:41.754Z,7.50
2023-02-24T07:24:37.052Z,7.50
2023-02-24T07:27:23.889Z,7.40
2023-02-24T07:30:29.132Z,7.30
2023-02-24T07:36:25.280Z,7.20
2023-02-24T07:39:06.475Z,7.20
2023-02-24T07:41:47.530Z,7.20
2023-02-24T07:44:26.333Z,7.10
2023-02-24T07:47:08.499Z,7.10
2023-02-24T07:49:51.472Z,7.10
2023-02-24T07:55:46.139Z,7.10
2023-02-24T07:58:28.825Z,7.10
2023-02-24T08:01:23.461Z,7.10
2023-02-24T08:04:12.767Z,7.50
2023-02-24T08:06:56.582Z,7.80
2023-02-24T08:09:48.260Z,7.90
2023-02-24T08:12:30.601Z,7.90
2023-02-24T08:15:32.720Z,7.80
2023-02-24T08:18:14.542Z,7.70
2023-02-24T08:21:06.367Z,7.60
2023-02-24T08:23:53.065Z,7.60
2023-02-24T08:26:32.316Z,7.50
2023-02-24T08:29:27.276Z,7.50
2023-02-24T08:32:04.250Z,7.50
2023-02-24T08:34:39.454Z,7.40
2023-02-24T08:37:17.821Z,7.40
2023-02-24T08:40:02.850Z,7.40
2023-02-24T08:42:47.379Z,7.40
2023-02-24T08:45:32.692Z,7.40
2023-02-24T08:48:19.540Z,7.40
2023-02-24T08:50:59.193Z,7.40
2023-02-24T08:53:35.955Z,7.70
2023-02-24T08:56:13.127Z,7.70
2023-02-24T08:58:57.694Z,7.60
2023-02-24T09:01:40.494Z,7.60
2023-02-24T09:04:20.608Z,7.60
2023-02-24T09:07:11.282Z,7.50
2023-02-24T09:09:50.768Z,7.50
2023-02-24T09:12:29.974Z,7.50
2023-02-24T09:15:10.884Z,7.60
2023-02-24T09:18:11.338Z,7.60
2023-02-24T09:21:50.027Z,7.60
2023-02-24T09:24:27.307Z,7.60
2023-02-24T09:27:04.931Z,7.70
2023-02-24T09:29:49.614Z,7.80
2023-02-24T09:32:30.237Z,7.80
2023-02-24T09:35:05.775Z,7.80
2023-02-24T09:37:45.533Z,7.90
2023-02-24T09:40:40.037Z,7.90
2023-02-24T09:43:24.931Z,7.90
2023-02-24T09:46:15.062Z,7.90
2023-02-24T09:48:55.399Z,7.90
2023-02-24T09:51:42.720Z,7.90
2023-02-24T09:54:24.867Z,7.90
2023-02-24T09:57:08.814Z,7.90
2023-02-24T10:00:01.832Z,7.90
2023-02-24T10:02:45.334Z,7.80
2023-02-24T10:05:28.295Z,7.70
2023-02-24T10:08:08.774Z,7.60
2023-02-24T10:11:07.470Z,7.40
2023-02-24T10:13:50.660Z,7.30
2023-02-24T10:16:29.072Z,7.20
2023-02-24T10:19:15.567Z,7.10
2023-02-24T10:22:05.114Z,7.00
2023-02-24T10:24:54.587Z,7.00
2023-02-24T10:27:46.957Z,7.00
2023-02-24T10:30:34.890Z,7.00
2023-02-24T10:33:19.757Z,7.00
2023-02-24T10:36:11.520Z,7.00
2023-02-24T10:38:51.023Z,7.10
2023-02-24T10:41:38.486Z,7.20
2023-02-24T10:44:16.951Z,7.30
2023-02-24T10:47:11.974Z,7.30
2023-02-24T10:49:49.860Z,7.40
2023-02-24T10:52:37.655Z,7.50
2023-02-24T10:55:28.944Z,7.50
2023-02-24T10:58:16.263Z,7.60
2023-02-24T11:01:13.798Z,7.60
2023-02-24T11:04:07.159Z,7.60
2023-02-24T11:06:58.182Z,7.70
2023-02-24T11:09:57.735Z,7.60
2023-02-24T11:12:45.527Z,7.60
2023-02-24T11:15:33.197Z,7.60
2023-02-24T11:18:19.133Z,7.60
2023-02-24T11:20:57.587Z,7.60
2023-02-24T11:23:38.461Z,7.60
2023-02-24T11:29:15.743Z,7.60
2023-02-24T11:32:23.616Z,7.50
2023-02-24T11:35:36.653Z,7.60
2023-02-24T11:38:28.447Z,7.60
2023-02-24T11:41:36.476Z,7.70
2023-02-24T11:44:21.714Z,7.70
2023-02-24T11:47:16.582Z,7.70
2023-02-24T11:49:54.228Z,7.70
2023-02-24T11:52:34.051Z,7.60
2023-02-24T11:55:22.958Z,7.60
2023-02-24T11:58:00.411Z,7.60
2023-02-24T12:00:37.686Z,7.60
2023-02-24T12:03:16.056Z,7.60
2023-02-24T12:06:00.588Z,7.60
2023-02-24T12:08:36.534Z,7.60
2023-02-24T12:11:14.502Z,7.60
2023-02-24T12:13:53.671Z,7.70
2023-02-24T12:16:33.563Z,7.70
2023-02-24T12:19:12.434Z,7.70
2023-02-24T12:22:03.408Z,7.80
2023-02-24T12:24:42.762Z,7.80
2023-02-24T12:27:20.945Z,7.90
2023-02-24T12:32:54.998Z,8.00
2023-02-24T12:35:37.217Z,8.10
2023-02-24T12:38:29.805Z,8.10
2023-02-24T12:41:04.674Z,8.10
2023-02-24T12:46:47.870Z,8.20
2023-02-24T12:52:33.989Z,8.30
2023-02-24T12:55:22.025Z,8.40
2023-02-24T12:58:02.294Z,8.40
2023-02-24T13:00:40.442Z,8.50
2023-02-24T13:03:29.472Z,8.50
2023-02-24T13:06:10.129Z,8.60
2023-02-24T13:08:52.413Z,8.60
2023-02-24T13:11:39.927Z,8.60
2023-02-24T13:14:20.689Z,8.60
2023-02-24T13:17:20.244Z,8.60
2023-02-24T13:19:56.221Z,8.60
2023-02-24T13:22:33.584Z,8.60
2023-02-24T13:25:27.836Z,8.70
2023-02-24T13:28:07.472Z,8.70
2023-02-24T13:30:45.094Z,8.70
2023-02-24T13:33:32.780Z,8.70
2023-02-24T13:36:40.085Z,8.70
2023-02-24T13:39:13.840Z,8.70
2023-02-24T13:41:48.681Z,8.70
2023-02-24T13:44:32.415Z,8.70
2023-02-24T13:47:47.355Z,8.70
2023-02-24T13:53:11.698Z,8.70
2023-02-24T13:55:54.982Z,8.70
2023-02-24T13:58:50.828Z,8.70
2023-02-24T14:01:29.676Z,8.80
2023-02-24T14:04:09.751Z,8.80
2023-02-24T14:06:51.429Z,8.80
2023-02-24T14:09:30.415Z,8.80
2023-02-24T14:15:02.652Z,8.70
2023-02-24T14:17:45.106Z,8.70
2023-02-24T14:20:24.208Z,8.60
2023-02-24T14:23:06.252Z,8.60
2023-02-24T14:25:44.040Z,8.50
2023-02-24T14:28:24.678Z,8.40
2023-02-24T14:31:04.106Z,8.40
2023-02-24T14:33:44.790Z,8.30
2023-02-24T14:36:21.721Z,8.30
2023-02-24T14:39:04.581Z,8.20
2023-02-24T14:41:42.164Z,8.10
2023-02-24T14:44:24.505Z,8.00
2023-02-24T14:47:02.695Z,7.90
2023-02-24T14:49:55.014Z,7.90
2023-02-24T14:55:26.747Z,7.80
2023-02-24T15:01:18.391Z,7.80
2023-02-24T15:03:56.518Z,7.70
2023-02-24T15:06:31.732Z,7.70
2023-02-24T15:09:14.903Z,7.60
2023-02-24T15:11:55.992Z,7.60
2023-02-24T15:14:32.778Z,7.60
2023-02-24T15:17:14.382Z,7.60
2023-02-24T15:19:54.845Z,7.50
2023-02-24T15:22:35.145Z,7.50
2023-02-24T15:25:28.033Z,7.50
2023-02-24T15:28:11.390Z,7.50
2023-02-24T15:30:57.610Z,7.40
2023-02-24T15:33:37.472Z,7.40
2023-02-24T15:36:18.368Z,7.30
2023-02-24T15:38:57.220Z,7.30
2023-02-24T15:41:46.559Z,7.30
2023-02-24T15:44:31.664Z,7.20
2023-02-24T15:47:23.384Z,7.20
2023-02-24T15:49:58.641Z,7.20
2023-02-24T15:52:35.931Z,7.20
2023-02-24T15:55:16.483Z,7.10
2023-02-24T15:58:02.104Z,7.10
2023-02-24T16:00:40.551Z,7.10
2023-02-24T16:03:18.884Z,7.10
2023-02-24T16:05:53.602Z,7.10
2023-02-24T16:08:32.947Z,7.00
2023-02-24T16:11:07.108Z,7.10
2023-02-24T16:13:51.685Z,7.00
2023-02-24T16:16:29.681Z,7.00
2023-02-24T16:19:11.424Z,7.00
2023-02-24T16:24:50.826Z,6.90
2023-02-24T16:27:27.669Z,6.90
2023-02-24T16:30:04.903Z,6.90
2023-02-24T16:32:39.791Z,6.80
2023-02-24T16:35:15.364Z,6.80
2023-02-24T16:37:52.340Z,6.70
2023-02-24T16:40:28.374Z,6.70
2023-02-24T16:43:01.512Z,6.70
2023-02-24T16:45:41.495Z,6.70
2023-02-24T16:48:15.824Z,6.60
2023-02-24T16:50:51.165Z,6.70
2023-02-24T16:53:26.340Z,6.60
2023-02-24T16:56:00.718Z,6.70
2023-02-24T16:58:35.726Z,6.70
2023-02-24T17:01:16.156Z,6.70
2023-02-24T17:03:52.155Z,6.70
2023-02-24T17:06:28.885Z,6.70
2023-02-24T17:09:04.406Z,6.70
2023-02-24T17:11:39.286Z,6.60
2023-02-24T17:14:17.906Z,6.60
2023-02-24T17:17:11.895Z,6.60
2023-02-24T17:19:47.958Z,6.50
2023-02-24T17:22:26.188Z,6.50
2023-02-24T17:24:59.942Z,6.50
2023-02-24T17:27:35.448Z,6.50
2023-02-24T17:30:12.821Z,6.40
2023-02-24T17:32:50.841Z,6.40
2023-02-24T17:35:25.872Z,6.50
2023-02-24T17:38:01.191Z,6.40
2023-02-24T17:40:38.557Z,6.40
2023-02-24T17:43:12.856Z,6.40
2023-02-24T17:45:52.034Z,6.40
2023-02-24T17:48:25.989Z,6.30
2023-02-24T17:51:04.124Z,6.30
2023-02-24T17:53:38.686Z,6.30
2023-02-24T17:56:13.951Z,6.30
2023-02-24T17:58:49.054Z,6.30
2023-02-24T18:01:25.735Z,6.30
2023-02-24T18:04:01.726Z,6.30
2023-02-24T18:06:40.893Z,6.30
2023-02-24T18:09:17.622Z,6.30
2023-02-24T18:11:57.773Z,6.30
2023-02-24T18:14:35.878Z,6.30
2023-02-24T18:17:12.175Z,6.20
2023-02-24T18:19:50.148Z,6.20
2023-02-24T18:22:30.854Z,6.20
2023-02-24T18:25:07.624Z,6.20
2023-02-24T18:27:47.227Z,6.20
2023-02-24T18:30:26.335Z,6.20
2023-02-24T18:33:04.951Z,6.20
2023-02-24T18:35:41.571Z,6.10
2023-02-24T18:38:25.289Z,6.20
2023-02-24T18:41:08.808Z,6.10
2023-02-24T18:43:45.194Z,6.10
2023-02-24T18:46:24.462Z,6.10
2023-02-24T18:49:00.643Z,6.10
2023-02-24T18:51:41.224Z,6.10
2023-02-24T18:54:15.909Z,6.10
2023-02-24T18:56:57.522Z,6.10
2023-02-24T18:59:36.479Z,6.10
2023-02-24T19:02:14.815Z,6.00
2023-02-24T19:04:51.642Z,6.00
2023-02-24T19:07:27.980Z,6.10
2023-02-24T19:10:05.495Z,6.10
2023-02-24T19:12:48.748Z,6.10
2023-02-24T19:15:31.066Z,6.00
2023-02-24T19:18:07.785Z,6.00
2023-02-24T19:23:50.790Z,6.00
2023-02-24T19:26:36.261Z,5.90
2023-02-24T19:29:18.132Z,5.90
2023-02-24T19:32:00.670Z,5.90
2023-02-24T19:34:38.701Z,5.80
2023-02-24T19:37:18.025Z,5.90
2023-02-24T19:40:00.582Z,5.90
2023-02-24T19:42:39.057Z,5.90
2023-02-24T19:45:23.016Z,5.90
2023-02-24T19:48:01.899Z,5.90
2023-02-24T19:50:43.930Z,5.90
2023-02-24T19:53:23.394Z,5.90
2023-02-24T19:56:07.071Z,5.80
2023-02-24T19:58:53.662Z,5.80
2023-02-24T20:01:39.877Z,5.80
2023-02-24T20:04:23.793Z,5.80
2023-02-24T20:07:03.169Z,5.70
2023-02-24T20:09:47.784Z,5.70
2023-02-24T20:12:29.510Z,5.70
2023-02-24T20:15:11.218Z,5.70
2023-02-24T20:17:51.069Z,5.60
2023-02-24T20:20:32.880Z,5.60
2023-02-24T20:23:14.780Z,5.60
2023-02-24T20:25:49.114Z,5.60
2023-02-24T20:28:28.819Z,5.60
2023-02-24T20:31:14.627Z,5.60
2023-02-24T20:33:58.984Z,5.60
2023-02-24T20:36:44.328Z,5.60
2023-02-24T20:39:25.685Z,5.50
2023-02-24T20:42:06.624Z,5.50
2023-02-24T20:44:49.671Z,5.50
2023-02-24T20:47:27.063Z,5.50
2023-02-24T20:50:03.769Z,5.50
2023-02-24T20:52:51.438Z,5.50
2023-02-24T20:55:29.859Z,5.40
2023-02-24T20:58:08.908Z,5.40
2023-02-24T21:00:51.113Z,5.40
2023-02-24T21:03:28.373Z,5.40
2023-02-24T21:06:10.203Z,5.40
2023-02-24T21:08:51.813Z,5.40
2023-02-24T21:11:30.201Z,5.40
2023-02-24T21:14:08.266Z,5.40
2023-02-24T21:16:46.552Z,5.40
2023-02-24T21:19:26.762Z,5.30
2023-02-24T21:22:03.614Z,5.30
2023-02-24T21:24:48.963Z,5.30
2023-02-24T21:27:28.114Z,5.30
2023-02-24T21:30:07.067Z,5.20
2023-02-24T21:32:44.330Z,5.30
2023-02-24T21:35:23.994Z,5.20
2023-02-24T21:38:03.126Z,5.20
2023-02-24T21:40:47.796Z,5.20
2023-02-24T21:43:27.243Z,5.20
2023-02-24T21:46:07.189Z,5.20
2023-02-24T21:48:43.635Z,5.20
2023-02-24T21:51:19.743Z,5.10
2023-02-24T21:53:58.451Z,5.10
2023-02-24T21:56:38.591Z,5.10
2023-02-24T21:59:18.101Z,5.10
2023-02-24T22:01:54.539Z,5.10
2023-02-24T22:04:39.768Z,5.10
2023-02-24T22:07:16.095Z,5.10
2023-02-24T22:09:56.156Z,5.00
2023-02-24T22:12:40.180Z,5.00
2023-02-24T22:15:18.065Z,5.10
2023-02-24T22:17:56.524Z,5.10
2023-02-24T22:20:34.792Z,5.10
2023-02-24T22:23:12.130Z,5.10
2023-02-24T22:25:50.960Z,5.10
2023-02-24T22:28:31.432Z,5.10
2023-02-24T22:31:09.717Z,5.10
2023-02-24T22:33:46.439Z,5.00
2023-02-24T22:36:25.001Z,5.10
2023-02-24T22:39:04.248Z,5.00
2023-02-24T22:41:41.484Z,5.00
2023-02-24T22:44:23.915Z,5.00
2023-02-24T22:46:58.563Z,5.00
2023-02-24T22:49:34.843Z,4.90
2023-02-24T22:52:17.502Z,4.90
2023-02-24T22:54:49.718Z,4.90
2023-02-24T22:57:29.619Z,4.90
2023-02-24T23:00:20.811Z,4.80
2023-02-24T23:02:56.902Z,4.80
2023-02-24T23:05:32.925Z,4.80
2023-02-24T23:08:10.913Z,4.80
2023-02-24T23:10:48.951Z,4.80
2023-02-24T23:13:26.585Z,4.80
2023-02-24T23:16:11.297Z,4.80
2023-02-24T23:18:51.570Z,4.70
2023-02-24T23:21:37.324Z,4.70
2023-02-24T23:24:14.705Z,4.70
2023-02-24T23:26:52.517Z,4.70
2023-02-24T23:29:33.730Z,4.70
2023-02-24T23:32:14.690Z,4.70
2023-02-24T23:34:55.157Z,4.70
2023-02-24T23:37:36.047Z,4.60
2023-02-24T23:40:17.853Z,4.60
2023-02-24T23:42:55.298Z,4.50
2023-02-24T23:45:32.959Z,4.50
2023-02-24T23:48:14.951Z,4.40
2023-02-24T23:50:57.267Z,4.40
2023-02-24T23:53:33.828Z,4.40
2023-02-24T23:56:12.620Z,4.40
2023-02-24T23:58:49.322Z,4.30
